Time;durP1;ratioP1;P1;durP2;ratioP2;P2;SDS_P1;SDS_P2;PMS_P1;PMS_P2;Temp;Humidity;BMP_temperature;BMP_pressure;BME280_temperature;BME280_humidity;BME280_pressure;Samples;Min_cycle;Max_cycle;Signal;HPM_P1;HPM_P2
2023/03/12 00:01:46;;;;;;;9.77;4.25;;;;;;;;;;7390684;19;20003;-72
2023/03/12 00:04:11;;;;;;;12.90;4.28;;;;;;;;;;7389275;19;20002;-70
2023/03/12 00:06:36;;;;;;;8.55;4.85;;;;;;;;;;7387278;19;20002;-70
2023/03/12 00:09:03;;;;;;;12.82;4.60;;;;;;;;;;7388488;19;20010;-69
2023/03/12 00:11:29;;;;;;;18.80;5.10;;;;;;;;;;7390203;19;20350;-69
2023/03/12 00:13:55;;;;;;;11.88;4.97;;;;;;;;;;7389216;19;20062;-68
2023/03/12 00:16:21;;;;;;;11.70;4.38;;;;;;;;;;7388074;19;20011;-70
2023/03/12 00:18:49;;;;;;;14.63;5.00;;;;;;;;;;7390225;19;20007;-70
2023/03/12 00:21:14;;;;;;;9.10;5.10;;;;;;;;;;7389617;19;20020;-69
2023/03/12 00:23:39;;;;;;;11.57;4.70;;;;;;;;;;7389042;19;20003;-70
2023/03/12 00:26:10;;;;;;;10.48;4.68;;;;;;;;;;7388372;19;20120;-70
2023/03/12 00:28:36;;;;;;;9.05;4.78;;;;;;;;;;7389488;19;20015;-71
2023/03/12 00:31:11;;;;;;;13.35;4.93;;;;;;;;;;7388985;19;20240;-70
2023/03/12 00:33:36;;;;;;;9.73;4.85;;;;;;;;;;7388808;19;19995;-70
2023/03/12 00:36:02;;;;;;;12.90;4.93;;;;;;;;;;7385738;19;20353;-69
2023/03/12 00:38:27;;;;;;;9.20;4.68;;;;;;;;;;7387521;19;20025;-69
2023/03/12 00:40:52;;;;;;;14.38;5.65;;;;;;;;;;7388843;19;20303;-69
2023/03/12 00:43:18;;;;;;;13.75;5.20;;;;;;;;;;7388287;19;20018;-70
2023/03/12 00:45:43;;;;;;;8.07;4.93;;;;;;;;;;7388180;19;20118;-70
2023/03/12 00:48:09;;;;;;;11.52;4.65;;;;;;;;;;7389152;19;20021;-68
2023/03/12 00:50:34;;;;;;;15.70;5.18;;;;;;;;;;7388916;19;20062;-70
2023/03/12 00:52:59;;;;;;;11.20;5.20;;;;;;;;;;7387188;19;20709;-70
2023/03/12 00:55:25;;;;;;;11.27;4.45;;;;;;;;;;7385322;19;20500;-70
2023/03/12 00:57:50;;;;;;;11.50;4.65;;;;;;;;;;7388823;19;20331;-69
2023/03/12 01:00:16;;;;;;;12.63;5.20;;;;;;;;;;7386584;19;20344;-70
2023/03/12 01:02:41;;;;;;;8.05;4.22;;;;;;;;;;7387756;19;20035;-70
2023/03/12 01:05:09;;;;;;;11.50;4.70;;;;;;;;;;7387968;19;20002;-70
2023/03/12 01:07:35;;;;;;;13.38;4.80;;;;;;;;;;7387253;19;20002;-69
2023/03/12 01:10:01;;;;;;;11.10;5.05;;;;;;;;;;7386225;19;20011;-69
2023/03/12 01:12:26;;;;;;;9.75;5.03;;;;;;;;;;7389218;19;20014;-69
2023/03/12 01:14:52;;;;;;;10.63;5.53;;;;;;;;;;7386929;19;20470;-69
2023/03/12 01:17:17;;;;;;;15.95;5.38;;;;;;;;;;7385072;19;20005;-70
2023/03/12 01:19:43;;;;;;;9.68;4.65;;;;;;;;;;7387678;19;20021;-70
2023/03/12 01:22:08;;;;;;;12.02;4.85;;;;;;;;;;7385829;19;20003;-70
2023/03/12 01:24:33;;;;;;;9.13;4.03;;;;;;;;;;7385655;19;20019;-69
2023/03/12 01:26:59;;;;;;;10.80;4.50;;;;;;;;;;7387049;19;20007;-70
2023/03/12 01:29:24;;;;;;;11.80;5.20;;;;;;;;;;7387963;19;20002;-70
2023/03/12 01:31:50;;;;;;;17.25;5.28;;;;;;;;;;7387752;19;19991;-68
2023/03/12 01:34:16;;;;;;;13.82;5.10;;;;;;;;;;7387040;19;19999;-69
2023/03/12 01:36:42;;;;;;;10.20;5.10;;;;;;;;;;7386310;19;20052;-69
2023/03/12 01:39:07;;;;;;;12.52;4.38;;;;;;;;;;7387405;19;20019;-68
2023/03/12 01:41:33;;;;;;;13.60;4.95;;;;;;;;;;7387068;19;20062;-68
2023/03/12 01:44:00;;;;;;;12.02;5.05;;;;;;;;;;7386918;19;20460;-70
2023/03/12 01:46:38;;;;;;;9.55;4.85;;;;;;;;;;7384828;19;20031;-70
2023/03/12 01:49:20;;;;;;;9.88;4.85;;;;;;;;;;7387442;19;20364;-71
2023/03/12 01:51:58;;;;;;;11.07;5.18;;;;;;;;;;7389721;19;20112;-71
2023/03/12 01:54:49;;;;;;;10.10;4.57;;;;;;;;;;7386507;19;19999;-71
2023/03/12 01:57:30;;;;;;;9.15;4.28;;;;;;;;;;7388893;19;20035;-69
2023/03/12 02:00:07;;;;;;;14.70;4.85;;;;;;;;;;7387561;19;20003;-71
2023/03/12 02:02:36;;;;;;;10.60;5.10;;;;;;;;;;7385249;19;20002;-70
2023/03/12 02:05:12;;;;;;;10.13;4.25;;;;;;;;;;7385248;19;20062;-71
2023/03/12 02:07:38;;;;;;;9.85;4.68;;;;;;;;;;7383285;19;20003;-70
2023/03/12 02:10:20;;;;;;;8.32;4.53;;;;;;;;;;7385216;19;20078;-70
2023/03/12 02:12:46;;;;;;;11.27;4.78;;;;;;;;;;7382789;19;20113;-69
2023/03/12 02:15:11;;;;;;;13.85;5.53;;;;;;;;;;7385984;19;20582;-69
2023/03/12 02:17:39;;;;;;;12.90;5.43;;;;;;;;;;7384572;19;20005;-69
2023/03/12 02:20:21;;;;;;;14.18;5.47;;;;;;;;;;7386658;19;20003;-70
2023/03/12 02:23:07;;;;;;;11.18;5.20;;;;;;;;;;7385775;19;20016;-69
2023/03/12 02:25:38;;;;;;;11.35;5.28;;;;;;;;;;7383782;19;20038;-70
2023/03/12 02:28:07;;;;;;;11.65;4.90;;;;;;;;;;7386531;19;20117;-69
2023/03/12 02:30:34;;;;;;;11.95;5.35;;;;;;;;;;7384534;19;19994;-70
2023/03/12 02:33:04;;;;;;;11.43;6.30;;;;;;;;;;7383185;19;20271;-70
2023/03/12 02:35:29;;;;;;;11.40;5.47;;;;;;;;;;7382811;19;20453;-69
2023/03/12 02:37:55;;;;;;;13.25;7.07;;;;;;;;;;7385296;19;20099;-71
2023/03/12 02:40:26;;;;;;;11.00;4.63;;;;;;;;;;7386331;19;20005;-70
2023/03/12 02:42:52;;;;;;;10.15;4.32;;;;;;;;;;7385498;19;20013;-70
2023/03/12 02:45:18;;;;;;;11.80;4.75;;;;;;;;;;7383101;19;19999;-69
2023/03/12 02:47:44;;;;;;;10.57;5.30;;;;;;;;;;7383314;19;20002;-69
2023/03/12 02:50:10;;;;;;;10.82;5.85;;;;;;;;;;7385328;19;20066;-70
2023/03/12 02:52:36;;;;;;;9.88;5.13;;;;;;;;;;7386194;19;20002;-70
2023/03/12 02:55:02;;;;;;;10.45;5.47;;;;;;;;;;7383976;19;20002;-68
2023/03/12 02:57:28;;;;;;;13.82;5.90;;;;;;;;;;7382925;19;20002;-69
2023/03/12 02:59:53;;;;;;;15.45;6.00;;;;;;;;;;7385141;19;19995;-72
2023/03/12 03:02:18;;;;;;;11.05;5.35;;;;;;;;;;7384708;19;19999;-70
2023/03/12 03:04:44;;;;;;;12.18;5.45;;;;;;;;;;7383674;19;20006;-69
2023/03/12 03:07:09;;;;;;;9.95;5.40;;;;;;;;;;7385041;19;20002;-68
2023/03/12 03:09:34;;;;;;;14.30;6.30;;;;;;;;;;7384341;19;20086;-69
2023/03/12 03:12:00;;;;;;;10.02;5.65;;;;;;;;;;7384788;19;19999;-70
2023/03/12 03:14:25;;;;;;;10.57;6.32;;;;;;;;;;7383990;19;20032;-69
2023/03/12 03:16:50;;;;;;;11.13;6.47;;;;;;;;;;7382900;19;19999;-68
2023/03/12 03:19:18;;;;;;;14.93;7.00;;;;;;;;;;7385376;19;20082;-70
2023/03/12 03:21:44;;;;;;;13.73;6.28;;;;;;;;;;7384207;19;20427;-70
2023/03/12 03:24:09;;;;;;;15.63;6.40;;;;;;;;;;7386962;19;20016;-68
2023/03/12 03:26:35;;;;;;;13.57;6.88;;;;;;;;;;7389684;19;20043;-70
2023/03/12 03:29:01;;;;;;;12.02;6.78;;;;;;;;;;7391492;19;20026;-70
2023/03/12 03:31:26;;;;;;;12.77;6.18;;;;;;;;;;7389346;19;20007;-69
2023/03/12 03:33:51;;;;;;;14.63;6.38;;;;;;;;;;7390639;19;19999;-70
2023/03/12 03:36:18;;;;;;;13.48;6.20;;;;;;;;;;7388907;19;20007;-69
2023/03/12 03:38:48;;;;;;;11.63;6.30;;;;;;;;;;7391228;19;20571;-70
2023/03/12 03:41:14;;;;;;;12.95;6.38;;;;;;;;;;7389187;19;20009;-70
2023/03/12 03:43:39;;;;;;;12.70;6.30;;;;;;;;;;7393379;19;20621;-70
2023/03/12 03:46:05;;;;;;;10.48;6.10;;;;;;;;;;7389901;19;20006;-68
2023/03/12 03:48:31;;;;;;;12.23;5.65;;;;;;;;;;7391036;19;20007;-69
2023/03/12 03:51:01;;;;;;;12.20;5.47;;;;;;;;;;7391001;19;20002;-70
2023/03/12 03:53:26;;;;;;;12.73;6.05;;;;;;;;;;7390212;19;20007;-69
2023/03/12 03:55:51;;;;;;;12.15;5.80;;;;;;;;;;7389358;19;20002;-71
2023/03/12 03:58:17;;;;;;;12.00;5.68;;;;;;;;;;7391224;19;20347;-69
2023/03/12 04:00:45;;;;;;;10.73;6.32;;;;;;;;;;7390915;19;20006;-70
2023/03/12 04:03:12;;;;;;;12.45;5.90;;;;;;;;;;7394493;19;20005;-69
2023/03/12 04:05:37;;;;;;;20.42;7.07;;;;;;;;;;7390494;19;20440;-71
2023/03/12 04:08:03;;;;;;;11.18;5.72;;;;;;;;;;7389199;19;20009;-71
2023/03/12 04:10:28;;;;;;;9.05;5.78;;;;;;;;;;7390724;19;20380;-70
2023/03/12 04:12:54;;;;;;;11.80;6.18;;;;;;;;;;7389867;19;20464;-70
2023/03/12 04:15:20;;;;;;;14.43;6.50;;;;;;;;;;7389416;19;20107;-70
2023/03/12 04:17:45;;;;;;;15.57;6.68;;;;;;;;;;7387865;19;20001;-70
2023/03/12 04:20:11;;;;;;;11.45;6.57;;;;;;;;;;7390250;19;19999;-70
2023/03/12 04:22:36;;;;;;;10.43;6.30;;;;;;;;;;7390125;19;19998;-70
2023/03/12 04:25:02;;;;;;;11.10;6.05;;;;;;;;;;7389835;19;20005;-70
2023/03/12 04:27:28;;;;;;;10.70;5.68;;;;;;;;;;7387851;19;20062;-71
2023/03/12 04:29:53;;;;;;;12.77;6.20;;;;;;;;;;7389991;19;20006;-70
2023/03/12 04:32:18;;;;;;;10.88;6.10;;;;;;;;;;7388054;19;20019;-70
2023/03/12 04:34:44;;;;;;;14.38;6.00;;;;;;;;;;7386443;19;20006;-69
2023/03/12 04:37:12;;;;;;;13.50;6.43;;;;;;;;;;7388180;19;20003;-71
2023/03/12 04:39:39;;;;;;;11.23;6.43;;;;;;;;;;7389551;19;20467;-69
2023/03/12 04:42:05;;;;;;;12.63;7.13;;;;;;;;;;7389370;19;20036;-71
2023/03/12 04:44:30;;;;;;;12.40;6.75;;;;;;;;;;7389341;19;20346;-70
2023/03/12 04:46:55;;;;;;;13.82;6.75;;;;;;;;;;7385799;19;20003;-70
2023/03/12 04:49:21;;;;;;;12.60;7.45;;;;;;;;;;7389532;19;20006;-69
2023/03/12 04:51:46;;;;;;;11.05;6.68;;;;;;;;;;7388802;19;20006;-68
2023/03/12 04:54:11;;;;;;;12.10;6.47;;;;;;;;;;7386400;19;20556;-68
2023/03/12 04:56:37;;;;;;;12.73;6.93;;;;;;;;;;7387864;19;20043;-69
2023/03/12 04:59:02;;;;;;;15.23;6.75;;;;;;;;;;7386595;19;20023;-69
2023/03/12 05:01:31;;;;;;;17.42;6.45;;;;;;;;;;7388348;19;20001;-69
2023/03/12 05:03:56;;;;;;;17.67;6.95;;;;;;;;;;7387969;19;20472;-70
2023/03/12 05:06:23;;;;;;;11.68;5.95;;;;;;;;;;7386996;19;20003;-70
2023/03/12 05:08:48;;;;;;;14.60;6.32;;;;;;;;;;7386165;19;20002;-70
2023/03/12 05:11:14;;;;;;;11.02;5.53;;;;;;;;;;7388054;19;20013;-70
2023/03/12 05:13:40;;;;;;;13.18;6.32;;;;;;;;;;7385573;19;20112;-68
2023/03/12 05:16:06;;;;;;;13.60;6.28;;;;;;;;;;7386062;19;20010;-68
2023/03/12 05:18:31;;;;;;;12.65;6.72;;;;;;;;;;7387917;19;19999;-70
2023/03/12 05:21:02;;;;;;;13.18;6.43;;;;;;;;;;7386089;19;20002;-71
2023/03/12 05:23:28;;;;;;;12.23;6.03;;;;;;;;;;7388509;19;20745;-70
2023/03/12 05:25:54;;;;;;;13.18;6.45;;;;;;;;;;7387136;19;20011;-72
2023/03/12 05:28:20;;;;;;;11.77;5.75;;;;;;;;;;7386146;19;20728;-70
2023/03/12 05:30:46;;;;;;;14.30;6.53;;;;;;;;;;7387129;19;20058;-69
2023/03/12 05:33:11;;;;;;;10.77;6.15;;;;;;;;;;7386865;19;20044;-70
2023/03/12 05:35:36;;;;;;;11.38;5.32;;;;;;;;;;7385883;19;20002;-70
2023/03/12 05:38:02;;;;;;;16.55;7.03;;;;;;;;;;7387432;19;20062;-69
2023/03/12 05:40:27;;;;;;;11.63;6.38;;;;;;;;;;7387378;19;20002;-69
2023/03/12 05:42:53;;;;;;;18.98;6.15;;;;;;;;;;7388166;19;20023;-71
2023/03/12 05:45:18;;;;;;;12.95;6.47;;;;;;;;;;7386874;19;20636;-70
2023/03/12 05:47:44;;;;;;;12.75;5.32;;;;;;;;;;7382983;19;19998;-71
2023/03/12 05:50:10;;;;;;;11.00;5.35;;;;;;;;;;7386956;19;20002;-70
2023/03/12 05:52:38;;;;;;;11.52;6.20;;;;;;;;;;7389274;19;20066;-71
2023/03/12 05:55:04;;;;;;;10.30;6.07;;;;;;;;;;7388145;19;20002;-70
2023/03/12 05:57:30;;;;;;;12.60;6.25;;;;;;;;;;7388455;19;19990;-70
2023/03/12 05:59:55;;;;;;;10.52;5.32;;;;;;;;;;7390496;19;20017;-68
2023/03/12 06:02:20;;;;;;;10.73;5.80;;;;;;;;;;7390642;19;20420;-70
2023/03/12 06:04:46;;;;;;;13.77;6.60;;;;;;;;;;7389831;19;20000;-69
2023/03/12 06:07:11;;;;;;;14.15;6.30;;;;;;;;;;7389012;19;19998;-69
2023/03/12 06:09:36;;;;;;;8.45;4.97;;;;;;;;;;7390490;19;20033;-69
2023/03/12 06:12:02;;;;;;;12.45;5.68;;;;;;;;;;7391370;19;20037;-71
2023/03/12 06:14:27;;;;;;;13.40;5.60;;;;;;;;;;7388701;19;20006;-70
2023/03/12 06:16:53;;;;;;;10.77;6.38;;;;;;;;;;7388345;19;20011;-69
2023/03/12 06:19:21;;;;;;;10.30;5.70;;;;;;;;;;7390571;19;19994;-69
2023/03/12 06:21:46;;;;;;;11.52;6.20;;;;;;;;;;7388669;19;20015;-70
2023/03/12 06:24:11;;;;;;;18.25;5.50;;;;;;;;;;7387323;19;19998;-70
2023/03/12 06:26:37;;;;;;;10.63;5.15;;;;;;;;;;7388618;19;19998;-70
2023/03/12 06:29:02;;;;;;;9.95;5.05;;;;;;;;;;7390660;19;20006;-69
2023/03/12 06:31:27;;;;;;;8.80;5.00;;;;;;;;;;7390065;19;19990;-69
2023/03/12 06:33:53;;;;;;;10.70;5.47;;;;;;;;;;7388906;19;19999;-69
2023/03/12 06:36:19;;;;;;;11.95;5.80;;;;;;;;;;7388016;19;20006;-69
2023/03/12 06:38:44;;;;;;;10.07;5.70;;;;;;;;;;7389884;19;20111;-70
2023/03/12 06:41:15;;;;;;;13.15;5.78;;;;;;;;;;7389026;19;20030;-68
2023/03/12 06:43:41;;;;;;;;;;;;;;;;;;7390159;19;20758;-70
2023/03/12 06:46:10;;;;;;;9.80;5.05;;;;;;;;;;7378301;19;19915;-70
2023/03/12 06:48:36;;;;;;;9.43;4.50;;;;;;;;;;7383159;19;20493;-70
2023/03/12 06:51:05;;;;;;;11.02;6.05;;;;;;;;;;7317613;19;20006;-70
2023/03/12 06:53:31;;;;;;;12.15;5.30;;;;;;;;;;7384356;19;20023;-72
2023/03/12 06:55:56;;;;;;;14.10;5.30;;;;;;;;;;7382780;19;20002;-69
2023/03/12 06:58:21;;;;;;;12.05;5.25;;;;;;;;;;7385309;19;20013;-74
2023/03/12 07:00:47;;;;;;;13.45;6.25;;;;;;;;;;7390083;19;20002;-70
2023/03/12 07:03:12;;;;;;;10.68;4.97;;;;;;;;;;7386897;19;20078;-70
2023/03/12 07:05:37;;;;;;;12.48;5.45;;;;;;;;;;7390033;19;20002;-67
2023/03/12 07:08:03;;;;;;;8.45;4.85;;;;;;;;;;7388038;19;20123;-70
2023/03/12 07:10:28;;;;;;;12.55;5.28;;;;;;;;;;7389393;19;20482;-68
2023/03/12 07:12:55;;;;;;;11.50;6.55;;;;;;;;;;7387627;19;20010;-69
2023/03/12 07:15:21;;;;;;;11.15;5.55;;;;;;;;;;7389623;19;20065;-68
2023/03/12 07:17:46;;;;;;;13.10;6.10;;;;;;;;;;7390261;19;20016;-69
2023/03/12 07:20:12;;;;;;;15.90;5.97;;;;;;;;;;7387059;19;20678;-70
2023/03/12 07:22:37;;;;;;;13.15;6.20;;;;;;;;;;7388295;19;20006;-70
2023/03/12 07:25:03;;;;;;;11.75;5.88;;;;;;;;;;7391202;19;20015;-70
2023/03/12 07:27:29;;;;;;;10.23;5.50;;;;;;;;;;7387013;19;20062;-71
2023/03/12 07:29:54;;;;;;;11.18;6.00;;;;;;;;;;7389856;19;20005;-69
2023/03/12 07:32:20;;;;;;;13.50;6.57;;;;;;;;;;7387291;19;20013;-71
2023/03/12 07:34:45;;;;;;;15.52;5.97;;;;;;;;;;7389670;19;20433;-71
2023/03/12 07:37:10;;;;;;;11.88;6.07;;;;;;;;;;7386726;19;19995;-71
2023/03/12 07:39:36;;;;;;;13.77;6.03;;;;;;;;;;7388444;19;20408;-70
2023/03/12 07:42:01;;;;;;;12.02;6.53;;;;;;;;;;7390260;19;20005;-71
2023/03/12 07:44:26;;;;;;;13.15;6.57;;;;;;;;;;7389938;19;19998;-70
2023/03/12 07:46:52;;;;;;;10.73;6.88;;;;;;;;;;7388084;19;20330;-70
2023/03/12 07:49:18;;;;;;;11.60;5.88;;;;;;;;;;7388641;19;20100;-71
2023/03/12 07:51:44;;;;;;;14.70;6.63;;;;;;;;;;7390222;19;19995;-72
2023/03/12 07:54:09;;;;;;;12.85;6.05;;;;;;;;;;7386757;19;20021;-70
2023/03/12 07:56:35;;;;;;;11.88;6.68;;;;;;;;;;7386628;19;20103;-71
2023/03/12 07:59:00;;;;;;;12.05;6.28;;;;;;;;;;7387898;19;20006;-72
2023/03/12 08:01:30;;;;;;;13.55;6.45;;;;;;;;;;7386392;19;20347;-70
2023/03/12 08:03:59;;;;;;;12.32;6.43;;;;;;;;;;7385707;19;20013;-70
2023/03/12 08:06:25;;;;;;;18.65;7.30;;;;;;;;;;7386626;19;20007;-72
2023/03/12 08:08:50;;;;;;;13.63;7.13;;;;;;;;;;7389147;19;20062;-71
2023/03/12 08:11:15;;;;;;;10.50;5.63;;;;;;;;;;7385653;19;20006;-69
2023/03/12 08:13:41;;;;;;;16.70;6.50;;;;;;;;;;7390762;19;19999;-75
2023/03/12 08:16:06;;;;;;;14.10;6.97;;;;;;;;;;7382306;19;20193;-74
2023/03/12 08:18:32;;;;;;;19.17;7.60;;;;;;;;;;7389201;19;20003;-76
2023/03/12 08:20:57;;;;;;;12.90;6.63;;;;;;;;;;7389210;19;20500;-74
2023/03/12 08:23:23;;;;;;;11.65;6.63;;;;;;;;;;7388573;19;19995;-73
2023/03/12 08:25:53;;;;;;;10.68;6.43;;;;;;;;;;7389165;19;20006;-73
2023/03/12 08:28:21;;;;;;;11.88;7.25;;;;;;;;;;7383895;19;20418;-74
2023/03/12 08:30:59;;;;;;;17.38;7.00;;;;;;;;;;7380206;19;19999;-74
2023/03/12 08:33:24;;;;;;;12.50;6.63;;;;;;;;;;7380170;19;20031;-74
2023/03/12 08:35:49;;;;;;;16.83;7.80;;;;;;;;;;7379804;19;19998;-75
2023/03/12 08:38:15;;;;;;;12.68;6.70;;;;;;;;;;7381957;19;20014;-74
2023/03/12 08:40:40;;;;;;;18.80;7.30;;;;;;;;;;7382280;19;20345;-75
2023/03/12 08:43:06;;;;;;;14.88;7.05;;;;;;;;;;7382378;19;20002;-76
2023/03/12 08:45:32;;;;;;;20.73;8.32;;;;;;;;;;7388518;19;20452;-74
2023/03/12 08:47:57;;;;;;;16.52;8.43;;;;;;;;;;7387654;19;20010;-74
2023/03/12 08:50:25;;;;;;;15.82;8.27;;;;;;;;;;7388400;19;20345;-76
2023/03/12 08:52:50;;;;;;;18.33;8.57;;;;;;;;;;7388038;19;20052;-73
2023/03/12 08:55:16;;;;;;;18.60;8.73;;;;;;;;;;7387653;19;20006;-75
2023/03/12 08:57:41;;;;;;;18.95;10.20;;;;;;;;;;7384334;19;20126;-74
2023/03/12 09:00:10;;;;;;;14.32;8.43;;;;;;;;;;7386427;19;20002;-75
2023/03/12 09:02:36;;;;;;;15.63;8.57;;;;;;;;;;7386866;19;20009;-76
2023/03/12 09:05:02;;;;;;;16.55;8.18;;;;;;;;;;7387282;19;19999;-75
2023/03/12 09:07:30;;;;;;;20.15;8.68;;;;;;;;;;7385018;19;20350;-77
2023/03/12 09:09:55;;;;;;;15.52;8.73;;;;;;;;;;7385565;19;20003;-75
2023/03/12 09:12:21;;;;;;;17.88;9.32;;;;;;;;;;7385895;19;20318;-74
2023/03/12 09:14:46;;;;;;;16.92;8.77;;;;;;;;;;7383763;19;20006;-76
2023/03/12 09:17:11;;;;;;;15.82;9.02;;;;;;;;;;7384301;19;20067;-76
2023/03/12 09:19:37;;;;;;;14.90;7.90;;;;;;;;;;7387558;19;20345;-76
2023/03/12 09:22:02;;;;;;;16.35;8.55;;;;;;;;;;7388300;19;20460;-75
2023/03/12 09:24:27;;;;;;;17.77;10.32;;;;;;;;;;7381673;19;19998;-76
2023/03/12 09:26:53;;;;;;;16.65;8.43;;;;;;;;;;7386048;19;20018;-75
2023/03/12 09:29:18;;;;;;;14.55;8.63;;;;;;;;;;7385349;19;20053;-74
2023/03/12 09:31:43;;;;;;;13.50;7.95;;;;;;;;;;7385265;19;20035;-74
2023/03/12 09:34:08;;;;;;;16.48;7.50;;;;;;;;;;7383143;19;20366;-75
2023/03/12 09:36:34;;;;;;;17.00;7.70;;;;;;;;;;7386667;19;20034;-76
2023/03/12 09:39:01;;;;;;;18.70;11.00;;;;;;;;;;7384904;19;20027;-84
2023/03/12 09:41:29;;;;;;;20.75;10.75;;;;;;;;;;7387694;19;20496;-82
2023/03/12 09:44:12;;;;;;;14.73;7.78;;;;;;;;;;7389170;19;20118;-79
2023/03/12 09:46:40;;;;;;;17.55;9.48;;;;;;;;;;7388631;19;20018;-85
2023/03/12 09:49:33;;;;;;;18.17;8.05;;;;;;;;;;7389045;19;20003;-83
2023/03/12 09:52:01;;;;;;;13.43;7.50;;;;;;;;;;7390612;19;20009;-80
2023/03/12 09:54:43;;;;;;;14.38;7.03;;;;;;;;;;7387252;19;20035;-83
2023/03/12 09:57:13;;;;;;;13.85;7.28;;;;;;;;;;7387634;19;20012;-83
2023/03/12 09:59:39;;;;;;;16.58;8.60;;;;;;;;;;7388617;19;20350;-83
2023/03/12 10:02:24;;;;;;;13.55;8.02;;;;;;;;;;7385261;19;20002;-83
2023/03/12 10:05:27;;;;;;;15.75;8.13;;;;;;;;;;7386138;19;20085;-83
2023/03/12 10:08:13;;;;;;;15.65;8.30;;;;;;;;;;7367627;19;20002;-84
2023/03/12 10:11:07;;;;;;;18.90;9.38;;;;;;;;;;7389236;19;20563;-82
2023/03/12 10:13:38;;;;;;;16.13;8.60;;;;;;;;;;7386169;19;20002;-82
2023/03/12 10:16:33;;;;;;;19.38;9.73;;;;;;;;;;7362239;19;20044;-81
2023/03/12 10:19:23;;;;;;;17.23;8.95;;;;;;;;;;7387878;19;20031;-82
2023/03/12 10:21:52;;;;;;;16.65;9.20;;;;;;;;;;7384008;19;20021;-78
2023/03/12 10:24:30;;;;;;;18.25;9.43;;;;;;;;;;7385004;19;20523;-78
2023/03/12 10:26:57;;;;;;;19.92;10.70;;;;;;;;;;7380824;19;19998;-78
2023/03/12 10:29:29;;;;;;;16.90;9.95;;;;;;;;;;7384311;19;20005;-79
2023/03/12 10:32:05;;;;;;;18.45;10.02;;;;;;;;;;7384105;19;20002;-80
2023/03/12 10:34:44;;;;;;;22.13;12.10;;;;;;;;;;7393803;19;20017;-77
2023/03/12 10:37:33;;;;;;;28.70;14.98;;;;;;;;;;7388484;19;20002;-79
2023/03/12 10:39:59;;;;;;;21.75;9.80;;;;;;;;;;7395492;19;20003;-77
2023/03/12 10:42:29;;;;;;;15.10;8.65;;;;;;;;;;7389075;19;20460;-78
2023/03/12 10:45:03;;;;;;;15.82;10.00;;;;;;;;;;7393955;19;20022;-81
2023/03/12 10:47:38;;;;;;;26.30;10.45;;;;;;;;;;7387744;19;20555;-79
2023/03/12 10:50:21;;;;;;;17.05;8.63;;;;;;;;;;7286757;19;20643;-77
2023/03/12 10:52:49;;;;;;;19.45;9.48;;;;;;;;;;7389305;19;20028;-79
2023/03/12 10:55:25;;;;;;;14.20;8.88;;;;;;;;;;7391233;19;20027;-78
2023/03/12 10:57:51;;;;;;;17.05;9.10;;;;;;;;;;7385800;19;20011;-79
2023/03/12 11:00:23;;;;;;;18.63;9.80;;;;;;;;;;7387564;19;20550;-77
2023/03/12 11:03:14;;;;;;;;;;;;;;;;;;7393620;19;20086;-79
2023/03/12 11:05:49;;;;;;;17.15;10.02;;;;;;;;;;7285701;19;20237;-80
2023/03/12 11:08:32;;;;;;;18.75;9.57;;;;;;;;;;7389505;19;20010;-80
2023/03/12 11:10:59;;;;;;;13.90;9.02;;;;;;;;;;7393461;19;20179;-66
2023/03/12 11:13:29;;;;;;;17.10;9.65;;;;;;;;;;7387896;19;20002;-66
2023/03/12 11:15:57;;;;;;;20.00;10.55;;;;;;;;;;7389239;19;20031;-80
2023/03/12 11:18:28;;;;;;;20.20;11.75;;;;;;;;;;7390691;19;20369;-81
2023/03/12 11:21:14;;;;;;;23.75;14.23;;;;;;;;;;7389984;19;20354;-78
2023/03/12 11:23:47;;;;;;;20.10;11.88;;;;;;;;;;7392147;19;20017;-77
2023/03/12 11:26:21;;;;;;;20.15;10.85;;;;;;;;;;7390220;19;20618;-78
2023/03/12 11:28:50;;;;;;;18.23;10.30;;;;;;;;;;7392798;19;19999;-78
2023/03/12 11:31:23;;;;;;;18.98;10.35;;;;;;;;;;7388886;19;20353;-78
2023/03/12 11:33:50;;;;;;;19.55;10.75;;;;;;;;;;7391785;19;20030;-79
2023/03/12 11:36:29;;;;;;;17.60;9.65;;;;;;;;;;7386244;19;19994;-80
2023/03/12 11:39:18;;;;;;;18.92;10.20;;;;;;;;;;7389413;19;20519;-78
2023/03/12 11:41:59;;;;;;;16.23;9.98;;;;;;;;;;7391880;19;20002;-79
2023/03/12 11:44:32;;;;;;;20.08;10.95;;;;;;;;;;7384797;19;20032;-78
2023/03/12 11:47:21;;;;;;;16.75;9.13;;;;;;;;;;7387008;19;20002;-78
2023/03/12 11:50:16;;;;;;;16.08;9.38;;;;;;;;;;7399502;19;20030;-79
2023/03/12 11:53:16;;;;;;;20.30;10.52;;;;;;;;;;7393848;19;20356;-76
2023/03/12 11:55:47;;;;;;;19.23;10.07;;;;;;;;;;7390534;19;20021;-75
2023/03/12 11:58:21;;;;;;;;;;;;;;;;;;7391852;19;20028;-76
2023/03/12 12:00:54;;;;;;;16.85;8.55;;;;;;;;;;7393939;19;20307;-77
2023/03/12 12:03:40;;;;;;;15.65;9.10;;;;;;;;;;7388401;19;20011;-78
2023/03/12 12:06:20;;;;;;;14.60;9.20;;;;;;;;;;7389166;19;20461;-81
2023/03/12 12:08:56;;;;;;;15.50;9.88;;;;;;;;;;7386654;19;20018;-77
2023/03/12 12:11:55;;;;;;;15.68;9.40;;;;;;;;;;7390802;19;20393;-82
2023/03/12 12:14:34;;;;;;;19.13;9.07;;;;;;;;;;7394169;19;20050;-77
2023/03/12 12:17:17;;;;;;;19.02;8.60;;;;;;;;;;7387073;19;20003;-77
2023/03/12 12:20:17;;;;;;;14.38;8.30;;;;;;;;;;7389409;19;19994;-77
2023/03/12 12:22:53;;;;;;;13.93;9.15;;;;;;;;;;7392842;19;19999;-79
2023/03/12 12:25:44;;;;;;;14.75;8.60;;;;;;;;;;7392545;19;20016;-80
2023/03/12 12:28:15;;;;;;;16.73;9.18;;;;;;;;;;7390910;19;20065;-78
2023/03/12 12:31:03;;;;;;;13.68;9.02;;;;;;;;;;7393103;19;19995;-80
2023/03/12 12:33:54;;;;;;;13.65;8.65;;;;;;;;;;7387725;19;20017;-74
2023/03/12 12:36:19;;;;;;;14.38;9.70;;;;;;;;;;7393298;19;20062;-76
2023/03/12 12:39:14;;;;;;;20.05;9.80;;;;;;;;;;7390131;19;20029;-79
2023/03/12 12:41:58;;;;;;;15.52;9.63;;;;;;;;;;7392374;19;19999;-79
2023/03/12 12:44:30;;;;;;;15.30;9.00;;;;;;;;;;7394242;19;20003;-79
2023/03/12 12:47:01;;;;;;;20.50;9.77;;;;;;;;;;7389715;19;20009;-75
2023/03/12 12:49:45;;;;;;;;;;;;;;;;;;7389138;19;20060;-72
2023/03/12 12:52:15;;;;;;;16.80;9.07;;;;;;;;;;7392516;19;20294;-72
2023/03/12 12:54:57;;;;;;;17.10;8.55;;;;;;;;;;7391942;19;20038;-75
2023/03/12 12:57:30;;;;;;;13.35;8.98;;;;;;;;;;7389550;19;19991;-76
2023/03/12 13:00:14;;;;;;;15.68;10.00;;;;;;;;;;7394168;19;20056;-74
2023/03/12 13:02:43;;;;;;;14.40;8.68;;;;;;;;;;7388250;19;19994;-72
2023/03/12 13:05:24;;;;;;;16.65;9.77;;;;;;;;;;7389051;19;20460;-74
2023/03/12 13:07:49;;;;;;;9.38;6.03;;;;;;;;;;7389343;19;20009;-75
2023/03/12 13:10:33;;;;;;;18.52;9.05;;;;;;;;;;7387523;19;20502;-77
2023/03/12 13:13:19;;;;;;;14.77;8.55;;;;;;;;;;7389001;19;20044;-75
2023/03/12 13:15:45;;;;;;;16.73;8.98;;;;;;;;;;7389854;19;19990;-75
2023/03/12 13:21:05;;;;;;;13.95;9.30;;;;;;;;;;7393377;19;20010;-78
2023/03/12 13:23:50;;;;;;;12.82;6.85;;;;;;;;;;7387233;19;19999;-78
2023/03/12 13:26:40;;;;;;;15.48;9.75;;;;;;;;;;7388177;19;20009;-81
2023/03/12 13:29:18;;;;;;;16.63;10.43;;;;;;;;;;7380990;19;20027;-77
2023/03/12 13:31:43;;;;;;;13.07;9.20;;;;;;;;;;7389160;19;20015;-79
2023/03/12 13:34:18;;;;;;;15.65;9.90;;;;;;;;;;7385958;19;20031;-78
2023/03/12 13:36:45;;;;;;;17.48;10.05;;;;;;;;;;7387727;19;20496;-77
2023/03/12 13:39:43;;;;;;;17.10;9.70;;;;;;;;;;7381216;19;19994;-81
2023/03/12 13:42:36;;;;;;;15.32;8.75;;;;;;;;;;7385196;19;20006;-77
2023/03/12 13:45:21;;;;;;;15.40;9.57;;;;;;;;;;7388130;19;20010;-79
2023/03/12 13:47:48;;;;;;;15.38;9.32;;;;;;;;;;7381417;19;20362;-78
2023/03/12 13:50:15;;;;;;;17.92;10.15;;;;;;;;;;7387150;19;20006;-78
2023/03/12 13:53:07;;;;;;;15.43;9.68;;;;;;;;;;7383133;19;20010;-78
2023/03/12 13:55:35;;;;;;;21.00;10.27;;;;;;;;;;7382881;19;20039;-79
2023/03/12 13:58:22;;;;;;;16.25;9.40;;;;;;;;;;7384361;19;20012;-78
2023/03/12 14:00:54;;;;;;;15.13;9.45;;;;;;;;;;7383345;19;20006;-77
2023/03/12 14:03:40;;;;;;;20.55;10.32;;;;;;;;;;7386206;19;19998;-78
2023/03/12 14:06:08;;;;;;;17.73;9.45;;;;;;;;;;7384927;19;20002;-78
2023/03/12 14:09:11;;;;;;;21.92;10.10;;;;;;;;;;7389227;19;20024;-80
2023/03/12 14:12:00;;;;;;;18.83;12.20;;;;;;;;;;7385652;19;20026;-78
2023/03/12 14:14:41;;;;;;;17.55;11.05;;;;;;;;;;7382848;19;20086;-80
2023/03/12 14:17:26;;;;;;;14.93;8.93;;;;;;;;;;7385979;19;20103;-75
2023/03/12 14:20:05;;;;;;;14.98;9.95;;;;;;;;;;7387377;19;20255;-79
2023/03/12 14:22:34;;;;;;;21.00;10.10;;;;;;;;;;7385209;19;20354;-75
2023/03/12 14:25:10;;;;;;;17.83;10.52;;;;;;;;;;7385727;19;20019;-76
2023/03/12 14:27:36;;;;;;;16.45;10.43;;;;;;;;;;7388162;19;20019;-77
2023/03/12 14:30:23;;;;;;;19.88;10.07;;;;;;;;;;7385497;19;20328;-78
2023/03/12 14:32:52;;;;;;;20.02;10.48;;;;;;;;;;7385191;19;20676;-78
2023/03/12 14:35:24;;;;;;;24.27;10.27;;;;;;;;;;7384257;19;20049;-78
2023/03/12 14:37:58;;;;;;;16.67;10.07;;;;;;;;;;7386761;19;20006;-78
2023/03/12 14:40:24;;;;;;;17.13;10.10;;;;;;;;;;7381331;19;20086;-77
2023/03/12 14:42:50;;;;;;;23.83;9.60;;;;;;;;;;7388496;19;20010;-80
2023/03/12 14:45:21;;;;;;;16.05;9.68;;;;;;;;;;7386381;19;20006;-78
2023/03/12 14:47:57;;;;;;;20.35;11.55;;;;;;;;;;7385682;19;20068;-79
2023/03/12 14:50:37;;;;;;;20.30;10.15;;;;;;;;;;7387292;19;20003;-79
2023/03/12 14:53:17;;;;;;;18.30;10.38;;;;;;;;;;7385788;19;19998;-80